Time;durP1;ratioP1;P1;durP2;ratioP2;P2;SDS_P1;SDS_P2;PMS_P1;PMS_P2;Temp;Humidity;BMP_temperature;BMP_pressure;BME280_temperature;BME280_humidity;BME280_pressure;Samples;Min_cycle;Max_cycle;Signal;HPM_P1;HPM_P2
2021/07/09 00:01:44;;;;;;;13.00;11.67;;;27.90;99.90;;;;;;5134388;28;20466;-61
2021/07/09 00:04:10;;;;;;;13.20;11.97;;;27.90;99.90;;;;;;5134466;28;20399;-68
2021/07/09 00:06:36;;;;;;;12.87;11.63;;;27.90;99.90;;;;;;5134428;28;21069;-62
2021/07/09 00:09:06;;;;;;;13.47;11.50;;;27.90;99.90;;;;;;5134928;28;20175;-67
2021/07/09 00:11:33;;;;;;;11.97;10.67;;;27.90;99.90;;;;;;5116321;28;20556;-68
2021/07/09 00:13:58;;;;;;;12.47;11.37;;;27.90;99.90;;;;;;5134951;28;20407;-61
2021/07/09 00:16:24;;;;;;;14.37;12.87;;;27.80;99.90;;;;;;5134372;28;20861;-68
2021/07/09 00:18:50;;;;;;;14.10;12.70;;;27.80;99.90;;;;;;5134822;28;20248;-61
2021/07/09 00:21:17;;;;;;;14.40;12.90;;;27.80;99.90;;;;;;5134247;28;20223;-67
2021/07/09 00:23:44;;;;;;;14.20;12.70;;;27.80;99.90;;;;;;5116200;28;20480;-68
2021/07/09 00:26:10;;;;;;;14.23;12.80;;;27.80;99.90;;;;;;5134235;28;20923;-61
2021/07/09 00:28:36;;;;;;;15.43;12.63;;;27.80;99.90;;;;;;5134710;28;20417;-68
2021/07/09 00:31:02;;;;;;;13.30;12.00;;;27.80;99.90;;;;;;5115769;28;20419;-61
2021/07/09 00:33:27;;;;;;;14.60;13.07;;;27.80;99.90;;;;;;5116044;28;20618;-68
2021/07/09 00:35:53;;;;;;;14.60;12.27;;;27.80;99.90;;;;;;5134098;28;20202;-61
2021/07/09 00:38:19;;;;;;;12.70;11.50;;;27.70;99.90;;;;;;5134623;28;20207;-61
2021/07/09 00:40:44;;;;;;;13.27;11.97;;;27.80;99.90;;;;;;5133991;28;20214;-61
2021/07/09 00:43:10;;;;;;;12.40;11.30;;;27.80;99.90;;;;;;5133940;28;20655;-61
2021/07/09 00:45:36;;;;;;;14.60;11.43;;;27.80;99.90;;;;;;5137034;27;20198;-64
2021/07/09 00:48:01;;;;;;;15.40;13.70;;;27.80;99.90;;;;;;5119587;27;20653;-68
2021/07/09 00:50:27;;;;;;;12.53;11.43;;;27.70;99.90;;;;;;5119719;27;20206;-61
2021/07/09 00:52:53;;;;;;;14.03;12.60;;;27.70;99.90;;;;;;5137994;27;20541;-68
2021/07/09 00:55:19;;;;;;;13.57;12.07;;;27.70;99.90;;;;;;5137682;27;20676;-61
2021/07/09 00:57:50;;;;;;;14.03;11.50;;;27.70;99.90;;;;;;5137826;27;20540;-61
2021/07/09 01:00:17;;;;;;;12.43;11.23;;;27.70;99.90;;;;;;5137594;27;20442;-68
2021/07/09 01:02:45;;;;;;;14.57;13.20;;;27.70;99.90;;;;;;5119217;27;20963;-62
2021/07/09 01:05:12;;;;;;;14.03;11.37;;;27.70;99.90;;;;;;5137481;27;20525;-66
2021/07/09 01:07:38;;;;;;;18.50;12.10;;;27.70;99.90;;;;;;5119091;27;20411;-68
2021/07/09 01:10:08;;;;;;;17.03;13.27;;;27.70;99.90;;;;;;5118980;27;20518;-61
2021/07/09 01:12:34;;;;;;;12.70;11.50;;;27.60;99.90;;;;;;5137585;27;20175;-67
2021/07/09 01:15:02;;;;;;;13.00;11.73;;;27.60;99.90;;;;;;5137302;27;20874;-68
2021/07/09 01:17:28;;;;;;;15.97;12.50;;;27.60;99.90;;;;;;5137452;27;20454;-61
2021/07/09 01:19:54;;;;;;;13.70;12.20;;;27.50;99.90;;;;;;5118783;27;20446;-61
2021/07/09 01:22:20;;;;;;;13.43;11.50;;;27.50;99.90;;;;;;5137348;27;20207;-61
2021/07/09 01:24:46;;;;;;;12.50;11.40;;;27.50;99.90;;;;;;5137179;27;20172;-68
2021/07/09 01:27:11;;;;;;;11.77;10.67;;;27.50;99.90;;;;;;5137236;27;20769;-67
2021/07/09 01:29:38;;;;;;;12.57;11.37;;;27.50;99.90;;;;;;5118714;27;20665;-63
2021/07/09 01:32:03;;;;;;;13.37;11.87;;;27.50;99.90;;;;;;5136950;27;20271;-68
2021/07/09 01:34:29;;;;;;;12.80;11.53;;;27.50;99.90;;;;;;5137046;27;20419;-64
2021/07/09 01:37:12;;;;;;;13.43;11.60;;;27.50;99.90;;;;;;5136833;27;20663;-61
2021/07/09 01:39:38;;;;;;;12.13;10.90;;;27.50;99.90;;;;;;5137121;27;20167;-68
2021/07/09 01:42:04;;;;;;;12.23;11.10;;;27.50;99.90;;;;;;5136729;27;20624;-61
2021/07/09 01:44:30;;;;;;;12.20;11.10;;;27.50;99.90;;;;;;5136834;27;20182;-62
2021/07/09 01:46:55;;;;;;;11.57;10.47;;;27.50;99.90;;;;;;5136636;27;20202;-68
2021/07/09 01:49:21;;;;;;;13.60;11.60;;;27.40;99.90;;;;;;5118249;27;20421;-62
2021/07/09 01:51:46;;;;;;;12.60;11.40;;;27.40;99.90;;;;;;5136579;27;20229;-68
2021/07/09 01:54:12;;;;;;;12.50;11.30;;;27.40;99.90;;;;;;5118285;27;20202;-68
2021/07/09 01:56:38;;;;;;;11.60;10.40;;;27.40;99.90;;;;;;5135142;27;20226;-61
2021/07/09 01:59:04;;;;;;;13.33;11.27;;;27.30;99.90;;;;;;5136411;27;20566;-68
2021/07/09 02:01:29;;;;;;;14.20;10.73;;;27.30;99.90;;;;;;5117909;27;20211;-68
2021/07/09 02:03:55;;;;;;;10.20;9.20;;;27.30;99.90;;;;;;5136912;27;20505;-61
2021/07/09 02:06:20;;;;;;;16.70;11.70;;;27.30;99.90;;;;;;5117972;27;20187;-62
2021/07/09 02:08:46;;;;;;;10.80;9.70;;;27.30;99.90;;;;;;5136773;27;20179;-68
2021/07/09 02:11:11;;;;;;;11.50;10.30;;;27.30;99.90;;;;;;5117797;27;20199;-61
2021/07/09 02:13:37;;;;;;;11.47;10.33;;;27.20;99.90;;;;;;5136152;27;20186;-61
2021/07/09 02:16:03;;;;;;;11.60;10.40;;;27.20;99.90;;;;;;5136080;27;20788;-61
2021/07/09 02:18:28;;;;;;;11.97;9.47;;;27.20;99.90;;;;;;5136504;27;20187;-68
2021/07/09 02:20:57;;;;;;;17.20;10.13;;;27.10;99.90;;;;;;5135828;27;20267;-61
2021/07/09 02:23:23;;;;;;;11.27;10.07;;;27.10;99.90;;;;;;5136363;27;20223;-61
2021/07/09 02:25:48;;;;;;;10.43;9.43;;;27.00;99.90;;;;;;5135928;27;20415;-61
2021/07/09 02:28:14;;;;;;;11.27;9.17;;;27.00;99.90;;;;;;5136283;27;20167;-67
2021/07/09 02:30:40;;;;;;;10.80;9.00;;;27.00;99.90;;;;;;5117411;27;20722;-67
2021/07/09 02:33:06;;;;;;;11.90;10.50;;;26.90;99.90;;;;;;5117508;27;20179;-68
2021/07/09 02:35:35;;;;;;;10.20;9.20;;;26.90;99.90;;;;;;5135709;27;20462;-67
2021/07/09 02:38:02;;;;;;;10.10;9.20;;;26.80;99.90;;;;;;5117278;27;20262;-61
2021/07/09 02:40:30;;;;;;;9.73;8.77;;;26.80;99.90;;;;;;5135621;27;20459;-61
2021/07/09 02:42:58;;;;;;;11.00;8.87;;;26.80;99.90;;;;;;5135894;27;20411;-61
2021/07/09 02:45:24;;;;;;;10.57;8.03;;;26.70;99.90;;;;;;5135505;27;20473;-61
2021/07/09 02:47:50;;;;;;;11.70;8.67;;;26.70;99.90;;;;;;5134875;27;20451;-61
2021/07/09 02:50:21;;;;;;;14.70;9.03;;;26.60;99.90;;;;;;5135622;27;20183;-67
2021/07/09 02:52:47;;;;;;;9.07;8.00;;;26.60;99.90;;;;;;5117105;27;20471;-61
2021/07/09 02:55:15;;;;;;;13.87;8.47;;;26.60;99.90;;;;;;5135362;27;20427;-61
2021/07/09 02:57:41;;;;;;;10.80;8.07;;;26.60;99.90;;;;;;5116617;27;20451;-61
2021/07/09 03:00:10;;;;;;;9.13;8.13;;;26.60;99.90;;;;;;5135210;27;20947;-61
2021/07/09 03:02:36;;;;;;;9.60;7.97;;;26.60;99.90;;;;;;5135473;27;20419;-68
2021/07/09 03:05:04;;;;;;;10.33;9.23;;;26.60;99.90;;;;;;5135180;27;20429;-68
2021/07/09 03:07:29;;;;;;;8.20;7.17;;;26.50;99.90;;;;;;5116539;27;20223;-61
2021/07/09 03:09:55;;;;;;;9.70;7.73;;;26.50;99.90;;;;;;5134920;27;20486;-61
2021/07/09 03:12:21;;;;;;;11.07;8.03;;;26.50;99.90;;;;;;5135133;27;20179;-61
2021/07/09 03:14:46;;;;;;;11.13;6.93;;;26.50;99.90;;;;;;5135066;27;20167;-67
2021/07/09 03:17:12;;;;;;;8.10;7.40;;;26.50;99.90;;;;;;5135070;27;20181;-67
2021/07/09 03:19:37;;;;;;;8.00;7.20;;;26.50;99.90;;;;;;5135078;27;20197;-68
2021/07/09 03:22:03;;;;;;;8.60;7.37;;;26.50;99.90;;;;;;5116257;27;20233;-68
2021/07/09 03:24:29;;;;;;;7.50;6.80;;;26.50;99.90;;;;;;5116499;27;20187;-61
2021/07/09 03:26:55;;;;;;;7.53;6.70;;;26.50;99.90;;;;;;5134779;27;20430;-68
2021/07/09 03:29:20;;;;;;;10.67;6.63;;;26.60;99.90;;;;;;5134961;27;20663;-68
2021/07/09 03:31:46;;;;;;;7.57;6.77;;;26.60;99.90;;;;;;5116331;27;20222;-61
2021/07/09 03:34:11;;;;;;;9.60;6.37;;;26.60;99.90;;;;;;5134623;27;20703;-61
2021/07/09 03:36:44;;;;;;;6.17;5.50;;;26.60;99.90;;;;;;5134778;27;20182;-68
2021/07/09 03:39:11;;;;;;;7.10;6.40;;;26.60;99.90;;;;;;5134845;27;20224;-61
2021/07/09 03:41:37;;;;;;;8.17;6.20;;;26.60;99.90;;;;;;5116267;28;20455;-68
2021/07/09 03:44:04;;;;;;;7.40;6.57;;;26.60;99.90;;;;;;5135210;27;20415;-61
2021/07/09 03:46:29;;;;;;;6.60;6.00;;;26.60;99.90;;;;;;5134727;28;20423;-68
2021/07/09 03:48:55;;;;;;;6.60;6.00;;;26.60;99.90;;;;;;5135200;28;20413;-68
2021/07/09 03:51:21;;;;;;;6.30;5.57;;;26.60;99.90;;;;;;5134675;28;20690;-65
2021/07/09 03:53:46;;;;;;;8.20;7.40;;;26.60;99.90;;;;;;5134836;28;20236;-61
2021/07/09 03:56:12;;;;;;;8.70;5.70;;;26.60;99.90;;;;;;5133369;28;20260;-65
2021/07/09 03:58:37;;;;;;;6.03;5.50;;;26.60;99.90;;;;;;5134598;28;20174;-68
2021/07/09 04:01:04;;;;;;;8.57;6.10;;;26.60;99.90;;;;;;5134311;28;20621;-70
2021/07/09 04:03:29;;;;;;;7.37;6.67;;;26.60;99.90;;;;;;5116268;28;20196;-68
2021/07/09 04:05:55;;;;;;;8.70;6.77;;;26.50;99.90;;;;;;5134373;28;20521;-61
2021/07/09 04:08:21;;;;;;;10.83;5.97;;;26.50;99.90;;;;;;5134830;28;20203;-61
2021/07/09 04:10:46;;;;;;;10.20;5.67;;;26.50;99.90;;;;;;5115939;28;20191;-68
2021/07/09 04:13:13;;;;;;;7.77;6.60;;;26.50;99.90;;;;;;5116081;28;20265;-69
2021/07/09 04:15:39;;;;;;;7.47;6.30;;;26.50;99.90;;;;;;5133230;28;20210;-61
2021/07/09 04:18:04;;;;;;;10.50;6.50;;;26.50;99.90;;;;;;5134481;27;20419;-62
2021/07/09 04:20:30;;;;;;;6.63;5.43;;;26.50;99.90;;;;;;5136908;27;20520;-61
2021/07/09 04:22:56;;;;;;;9.83;6.93;;;26.50;99.90;;;;;;5136707;27;20167;-61
2021/07/09 04:25:23;;;;;;;9.20;5.80;;;26.50;99.90;;;;;;5137066;27;20198;-61
2021/07/09 04:27:48;;;;;;;6.70;6.10;;;26.40;99.90;;;;;;5138483;27;20411;-69
2021/07/09 04:30:14;;;;;;;6.60;6.00;;;26.40;99.90;;;;;;5138242;27;20425;-61
2021/07/09 04:32:40;;;;;;;9.10;6.87;;;26.40;99.90;;;;;;5119663;27;20182;-68
2021/07/09 04:35:07;;;;;;;13.30;7.63;;;26.40;99.90;;;;;;5138028;27;20484;-61
2021/07/09 04:37:32;;;;;;;7.50;6.17;;;26.40;99.90;;;;;;5137997;27;20460;-68
2021/07/09 04:39:59;;;;;;;10.07;6.30;;;26.40;99.90;;;;;;5138079;27;20415;-68
2021/07/09 04:42:25;;;;;;;6.30;5.70;;;26.40;99.90;;;;;;5119533;27;20228;-69
2021/07/09 04:44:50;;;;;;;7.23;6.23;;;26.40;99.90;;;;;;5137857;27;20403;-61
2021/07/09 04:47:16;;;;;;;8.03;7.23;;;26.40;99.90;;;;;;5137995;27;20174;-61
2021/07/09 04:49:42;;;;;;;9.10;6.03;;;26.50;99.90;;;;;;5137901;27;20636;-68
2021/07/09 04:52:07;;;;;;;7.10;6.40;;;26.50;99.90;;;;;;5137861;27;20179;-68
2021/07/09 04:54:33;;;;;;;11.63;6.27;;;26.50;99.90;;;;;;5137757;27;20532;-61
2021/07/09 04:56:58;;;;;;;7.67;6.10;;;26.40;99.90;;;;;;5137430;27;20234;-68
2021/07/09 04:59:24;;;;;;;7.07;6.53;;;26.50;99.90;;;;;;5137289;27;20200;-68
2021/07/09 05:01:50;;;;;;;7.80;6.90;;;26.50;99.90;;;;;;5137502;27;20215;-61
2021/07/09 05:04:15;;;;;;;7.20;5.87;;;26.50;99.90;;;;;;5137481;27;20259;-65
2021/07/09 05:06:41;;;;;;;7.63;6.23;;;26.60;99.90;;;;;;5137289;27;20187;-69
2021/07/09 05:09:07;;;;;;;6.87;6.17;;;26.60;99.90;;;;;;5137207;27;20644;-63
2021/07/09 05:11:34;;;;;;;7.50;5.83;;;26.70;99.90;;;;;;5137226;27;20202;-69
2021/07/09 05:14:03;;;;;;;6.60;6.00;;;26.70;99.90;;;;;;5137861;27;20414;-68
2021/07/09 05:16:29;;;;;;;11.30;6.63;;;26.80;99.90;;;;;;5137337;27;20496;-61
2021/07/09 05:18:56;;;;;;;7.40;6.20;;;26.80;99.90;;;;;;5119068;27;20423;-71
2021/07/09 05:21:23;;;;;;;8.90;6.20;;;26.90;99.90;;;;;;5137104;27;20213;-69
2021/07/09 05:23:49;;;;;;;8.73;6.50;;;26.90;99.90;;;;;;5136494;27;20454;-68
2021/07/09 05:26:16;;;;;;;9.63;6.30;;;27.00;99.90;;;;;;5136116;27;20475;-67
2021/07/09 05:28:41;;;;;;;7.03;6.30;;;27.00;99.90;;;;;;5137416;27;20760;-63
2021/07/09 05:31:07;;;;;;;11.27;6.65;;;27.10;99.90;;;;;;5136281;27;20395;-64
2021/07/09 05:33:33;;;;;;;7.17;6.47;;;27.20;99.90;;;;;;5137224;27;20178;-65
2021/07/09 05:35:59;;;;;;;9.37;6.53;;;27.20;99.90;;;;;;5134808;27;20214;-63
2021/07/09 05:38:24;;;;;;;7.60;6.70;;;27.30;99.90;;;;;;5110460;27;20424;-67
2021/07/09 05:40:50;;;;;;;9.43;6.30;;;27.40;99.90;;;;;;5115491;28;20211;-65
2021/07/09 05:43:16;;;;;;;10.27;6.33;;;27.60;99.90;;;;;;5132763;27;20260;-65
2021/07/09 05:45:41;;;;;;;7.87;6.17;;;27.60;99.90;;;;;;5115409;27;20194;-66
2021/07/09 05:48:07;;;;;;;11.40;6.30;;;27.70;99.90;;;;;;5123252;27;20179;-65
2021/07/09 05:50:32;;;;;;;9.00;6.53;;;27.90;99.90;;;;;;5115318;27;20687;-66
2021/07/09 05:52:58;;;;;;;11.67;6.80;;;28.00;99.90;;;;;;5132752;27;20757;-67
2021/07/09 05:55:24;;;;;;;6.90;6.30;;;28.00;99.90;;;;;;5113898;27;20221;-66
2021/07/09 05:57:50;;;;;;;14.50;6.80;;;28.10;99.90;;;;;;5114476;27;20576;-64
2021/07/09 06:00:16;;;;;;;18.27;7.20;;;28.20;99.90;;;;;;5115311;27;20500;-65
2021/07/09 06:02:42;;;;;;;11.70;6.67;;;28.30;99.90;;;;;;5113668;27;20697;-64
2021/07/09 06:05:08;;;;;;;10.30;6.93;;;28.40;99.90;;;;;;5132074;27;20445;-65
2021/07/09 06:07:34;;;;;;;11.07;6.67;;;28.50;99.90;;;;;;5132568;27;20218;-65
2021/07/09 06:10:00;;;;;;;13.80;6.60;;;28.60;99.90;;;;;;5115017;27;21010;-63
2021/07/09 06:12:26;;;;;;;8.83;6.77;;;28.70;99.90;;;;;;5111244;27;20180;-64
2021/07/09 06:14:52;;;;;;;9.67;6.43;;;28.70;99.90;;;;;;5112229;27;20426;-63
2021/07/09 06:17:18;;;;;;;9.00;6.30;;;28.80;99.90;;;;;;5132112;27;20263;-64
2021/07/09 06:19:44;;;;;;;10.27;6.30;;;28.80;99.90;;;;;;5132743;27;20445;-64
2021/07/09 06:22:09;;;;;;;10.70;7.40;;;28.90;99.90;;;;;;5129754;27;20471;-65
2021/07/09 06:24:35;;;;;;;13.07;7.47;;;28.90;99.90;;;;;;5110506;27;20504;-65
2021/07/09 06:27:01;;;;;;;12.27;7.60;;;28.90;99.90;;;;;;5109816;27;20296;-61
2021/07/09 06:29:27;;;;;;;15.43;7.70;;;28.90;99.90;;;;;;5128547;27;20610;-63
2021/07/09 06:31:53;;;;;;;10.70;6.53;;;28.90;99.90;;;;;;5109818;27;20538;-62
2021/07/09 06:34:19;;;;;;;13.03;6.93;;;28.90;99.90;;;;;;5130178;27;20209;-64
2021/07/09 06:36:44;;;;;;;10.60;7.20;;;29.00;99.90;;;;;;5113269;27;20599;-64
2021/07/09 06:39:10;;;;;;;7.40;6.50;;;29.00;99.90;;;;;;5131750;27;20182;-66
2021/07/09 06:41:35;;;;;;;7.03;6.33;;;29.10;99.90;;;;;;5133000;27;20632;-66
2021/07/09 06:44:01;;;;;;;8.43;6.70;;;29.20;99.90;;;;;;5132002;27;20169;-64
2021/07/09 06:46:27;;;;;;;13.77;7.77;;;29.30;99.90;;;;;;5112954;27;20700;-64
2021/07/09 06:48:53;;;;;;;16.77;6.80;;;29.30;99.90;;;;;;5128878;27;20178;-65
2021/07/09 06:51:19;;;;;;;9.63;7.07;;;29.40;99.90;;;;;;5130566;27;20503;-64
2021/07/09 06:53:47;;;;;;;7.83;6.27;;;29.50;99.90;;;;;;5130467;27;20465;-64
2021/07/09 06:56:13;;;;;;;9.60;6.82;;;29.50;99.90;;;;;;5110382;27;20442;-62
2021/07/09 06:58:39;;;;;;;11.50;6.70;;;29.60;99.90;;;;;;5133104;27;20205;-65
2021/07/09 07:01:05;;;;;;;11.43;7.10;;;29.70;99.90;;;;;;5131523;27;20915;-67
2021/07/09 07:03:30;;;;;;;11.43;7.00;;;29.60;99.90;;;;;;5114969;27;20190;-68
2021/07/09 07:05:56;;;;;;;11.87;6.73;;;29.60;99.90;;;;;;5115485;27;20206;-66
2021/07/09 07:08:23;;;;;;;10.53;5.93;;;29.60;99.90;;;;;;5134931;27;20185;-65
2021/07/09 07:10:51;;;;;;;8.23;6.53;;;29.60;99.90;;;;;;5114713;27;20214;-62
2021/07/09 07:13:24;;;;;;;10.10;6.43;;;29.70;99.90;;;;;;5132675;27;20525;-67
2021/07/09 07:15:50;;;;;;;9.33;7.67;;;29.70;99.90;;;;;;5132199;27;20510;-62
2021/07/09 07:18:16;;;;;;;8.33;6.33;;;29.80;99.90;;;;;;5129177;27;20812;-65
2021/07/09 07:20:45;;;;;;;9.03;6.27;;;29.80;99.90;;;;;;5128306;27;20473;-62
2021/07/09 07:23:15;;;;;;;10.60;6.10;;;29.90;99.90;;;;;;5130323;27;20182;-62
2021/07/09 07:25:41;;;;;;;7.63;6.93;;;29.90;99.90;;;;;;5132664;27;20421;-65
2021/07/09 07:28:07;;;;;;;6.83;6.23;;;29.90;99.90;;;;;;5131619;27;20831;-65
2021/07/09 07:30:34;;;;;;;7.33;6.60;;;29.90;99.90;;;;;;5129037;27;20445;-65
2021/07/09 07:32:59;;;;;;;8.83;7.27;;;29.90;99.90;;;;;;5131114;27;20437;-64
2021/07/09 07:35:25;;;;;;;9.17;7.80;;;29.90;99.90;;;;;;5130136;27;20450;-64
2021/07/09 07:37:53;;;;;;;11.03;7.00;;;29.90;99.90;;;;;;5132353;27;20189;-64
2021/07/09 07:40:19;;;;;;;13.17;7.40;;;29.90;99.90;;;;;;5112006;28;20219;-64
2021/07/09 07:42:46;;;;;;;8.77;7.80;;;29.90;99.90;;;;;;5133692;27;20490;-64
2021/07/09 07:45:12;;;;;;;9.30;7.40;;;30.00;99.90;;;;;;5132036;27;20437;-64
2021/07/09 07:47:38;;;;;;;18.60;7.00;;;30.00;99.90;;;;;;5133480;28;20438;-64
2021/07/09 07:50:06;;;;;;;7.87;7.07;;;30.00;99.90;;;;;;5133073;27;20476;-65
2021/07/09 07:52:31;;;;;;;8.27;7.47;;;30.00;99.90;;;;;;5128989;28;20430;-65
2021/07/09 07:54:57;;;;;;;9.47;7.80;;;30.00;99.90;;;;;;5136122;27;20422;-65
2021/07/09 07:57:22;;;;;;;10.80;7.77;;;30.00;99.90;;;;;;5136714;27;20220;-65
2021/07/09 07:59:48;;;;;;;9.23;7.50;;;30.00;99.90;;;;;;5135620;27;20188;-64
2021/07/09 08:02:14;;;;;;;7.90;7.30;;;30.00;99.90;;;;;;5118345;27;20218;-65
2021/07/09 08:04:40;;;;;;;9.10;8.10;;;30.00;99.90;;;;;;5118882;27;20250;-65
2021/07/09 08:07:05;;;;;;;12.63;8.20;;;30.00;99.90;;;;;;5113099;27;20535;-65
2021/07/09 08:09:32;;;;;;;9.10;7.10;;;30.00;99.90;;;;;;5113046;27;20190;-64
2021/07/09 08:11:58;;;;;;;13.40;8.30;;;30.00;99.90;;;;;;5135390;27;20258;-65
2021/07/09 08:14:24;;;;;;;12.70;8.10;;;30.00;99.90;;;;;;5134356;27;20429;-65
2021/07/09 08:16:51;;;;;;;7.93;7.13;;;30.10;99.90;;;;;;5115525;27;20442;-64
2021/07/09 08:19:19;;;;;;;11.43;7.60;;;30.10;99.90;;;;;;5131765;27;20954;-65
2021/07/09 08:21:46;;;;;;;9.10;7.70;;;30.10;99.90;;;;;;5108701;27;21058;-67
2021/07/09 08:24:16;;;;;;;16.83;8.00;;;30.20;99.90;;;;;;5134207;27;20462;-63
2021/07/09 08:26:42;;;;;;;9.47;8.30;;;30.20;99.90;;;;;;5131346;27;20434;-65
2021/07/09 08:29:08;;;;;;;8.77;7.13;;;30.10;99.90;;;;;;5135165;27;20437;-65
2021/07/09 08:31:35;;;;;;;16.03;8.43;;;30.10;99.90;;;;;;5132029;27;20456;-65
2021/07/09 08:34:00;;;;;;;17.97;7.80;;;30.10;99.90;;;;;;5135363;27;20172;-65
2021/07/09 08:36:26;;;;;;;8.23;7.43;;;30.10;99.90;;;;;;5116237;27;20443;-62
2021/07/09 08:38:53;;;;;;;7.70;7.00;;;30.10;99.90;;;;;;5113171;27;20178;-62
2021/07/09 08:41:19;;;;;;;9.07;7.97;;;30.00;99.90;;;;;;5133659;27;20229;-65
2021/07/09 08:43:45;;;;;;;8.70;7.80;;;30.00;99.90;;;;;;5131062;27;20823;-66
2021/07/09 08:46:12;;;;;;;11.60;7.77;;;30.10;99.90;;;;;;5132331;27;20534;-66
2021/07/09 08:48:37;;;;;;;8.43;7.33;;;30.10;99.90;;;;;;5126921;27;20182;-66
2021/07/09 08:51:04;;;;;;;8.90;7.60;;;30.10;99.90;;;;;;5131619;27;20473;-66
2021/07/09 08:53:30;;;;;;;11.00;7.27;;;30.20;99.90;;;;;;5114082;27;20192;-63
2021/07/09 08:55:56;;;;;;;8.47;6.90;;;30.20;99.90;;;;;;5134791;27;20827;-62
2021/07/09 08:58:21;;;;;;;8.80;7.60;;;30.30;99.90;;;;;;5132450;27;20225;-63
2021/07/09 09:00:47;;;;;;;7.97;7.13;;;30.30;99.90;;;;;;5135488;27;20515;-65
2021/07/09 09:03:16;;;;;;;8.33;7.53;;;30.30;99.90;;;;;;5116378;27;20448;-66
2021/07/09 09:05:43;;;;;;;8.17;7.43;;;30.30;99.90;;;;;;5127795;27;20217;-67
2021/07/09 09:08:10;;;;;;;13.77;8.03;;;30.30;99.90;;;;;;5110939;27;20533;-62
2021/07/09 09:10:49;;;;;;;10.27;7.93;;;30.30;99.90;;;;;;5105168;27;20461;-68
2021/07/09 09:13:19;;;;;;;11.30;7.23;;;30.30;99.90;;;;;;5130497;27;20964;-67
2021/07/09 09:16:03;;;;;;;7.83;7.00;;;30.30;99.90;;;;;;5128988;27;21107;-68
2021/07/09 09:18:34;;;;;;;7.83;6.80;;;30.30;99.90;;;;;;5133256;27;20438;-68
2021/07/09 09:21:12;;;;;;;8.20;7.40;;;30.30;99.90;;;;;;5109928;27;20471;-67
2021/07/09 09:23:52;;;;;;;8.90;6.90;;;30.40;99.90;;;;;;5128957;27;20501;-68
2021/07/09 09:26:46;;;;;;;16.20;7.90;;;30.40;99.90;;;;;;5127163;27;20454;-64
2021/07/09 09:29:15;;;;;;;10.60;7.30;;;30.50;99.90;;;;;;5111194;27;20454;-67
2021/07/09 09:31:42;;;;;;;7.33;6.47;;;30.60;99.90;;;;;;5112936;27;20445;-62
2021/07/09 09:34:07;;;;;;;10.77;7.43;;;30.70;99.90;;;;;;5113404;27;20431;-67
2021/07/09 09:36:34;;;;;;;11.00;7.30;;;30.80;99.90;;;;;;5111226;27;20978;-61
2021/07/09 09:39:02;;;;;;;7.50;6.80;;;31.00;99.90;;;;;;5131992;27;20193;-63
2021/07/09 09:41:31;;;;;;;7.87;6.47;;;31.20;99.90;;;;;;5125004;27;20480;-62
2021/07/09 09:44:13;;;;;;;7.73;7.03;;;31.40;99.90;;;;;;5129051;27;20415;-62
2021/07/09 09:46:39;;;;;;;9.23;7.33;;;31.60;99.90;;;;;;5132055;27;20458;-63
2021/07/09 09:49:05;;;;;;;10.70;7.47;;;31.80;99.90;;;;;;5130097;27;20418;-68
2021/07/09 09:51:34;;;;;;;8.13;7.37;;;31.90;99.90;;;;;;5131057;27;20217;-67
2021/07/09 09:54:05;;;;;;;7.50;6.40;;;32.00;99.20;;;;;;5131356;27;20427;-63
2021/07/09 09:56:51;;;;;;;7.03;6.33;;;32.10;99.70;;;;;;5131259;27;20536;-68
2021/07/09 09:59:24;;;;;;;9.57;7.20;;;32.20;98.90;;;;;;5130364;27;20419;-63
2021/07/09 10:02:16;;;;;;;10.03;7.13;;;32.20;98.20;;;;;;5127294;27;20828;-67
2021/07/09 10:04:42;;;;;;;9.40;6.60;;;32.10;98.40;;;;;;5121553;27;20422;-64
2021/07/09 10:07:08;;;;;;;6.87;6.17;;;32.10;99.00;;;;;;5125691;27;20864;-63
2021/07/09 10:09:34;;;;;;;7.07;6.47;;;32.20;99.10;;;;;;5134356;27;20560;-69
2021/07/09 10:12:03;;;;;;;10.00;6.83;;;32.20;98.40;;;;;;5134196;27;20439;-63
2021/07/09 10:14:32;;;;;;;8.40;6.57;;;32.30;98.60;;;;;;5134292;27;20711;-63
2021/07/09 10:17:00;;;;;;;7.67;6.53;;;32.30;98.10;;;;;;5111754;27;20800;-63
2021/07/09 10:19:38;;;;;;;8.50;6.73;;;32.30;98.10;;;;;;5112680;27;20426;-63
2021/07/09 10:22:05;;;;;;;7.80;6.50;;;32.30;98.00;;;;;;5125239;27;20482;-64
2021/07/09 10:24:32;;;;;;;7.10;6.50;;;32.30;98.10;;;;;;5117233;27;20479;-63
2021/07/09 10:26:58;;;;;;;7.83;7.07;;;32.30;98.20;;;;;;5131305;27;20511;-64
2021/07/09 10:29:26;;;;;;;13.13;6.30;;;32.40;98.30;;;;;;5122186;27;20414;-63
2021/07/09 10:31:53;;;;;;;8.60;6.43;;;32.50;97.60;;;;;;5109738;27;20446;-63
2021/07/09 10:34:47;;;;;;;8.40;6.70;;;32.60;97.90;;;;;;5128779;27;20405;-63
2021/07/09 10:37:21;;;;;;;8.10;6.83;;;32.60;97.60;;;;;;5128189;27;20778;-63
2021/07/09 10:39:49;;;;;;;10.50;6.90;;;32.70;97.70;;;;;;5125314;27;20925;-64
2021/07/09 10:42:26;;;;;;;7.07;6.37;;;32.80;97.70;;;;;;5122364;27;21036;-66
2021/07/09 10:45:17;;;;;;;8.03;7.33;;;32.90;97.30;;;;;;5126500;27;20411;-63
2021/07/09 10:47:43;;;;;;;13.60;6.93;;;33.00;98.00;;;;;;5124600;27;20509;-63
2021/07/09 10:50:13;;;;;;;8.03;6.00;;;33.10;97.70;;;;;;5118678;27;20568;-64
2021/07/09 10:52:57;;;;;;;10.40;6.37;;;33.20;96.60;;;;;;5102580;27;20214;-63
2021/07/09 10:55:26;;;;;;;7.50;6.40;;;33.30;96.20;;;;;;5131538;27;20459;-64
2021/07/09 10:58:07;;;;;;;7.53;6.30;;;33.30;96.40;;;;;;5131440;27;20482;-62
2021/07/09 11:00:45;;;;;;;8.40;7.20;;;33.30;96.80;;;;;;5133542;27;20469;-63
2021/07/09 11:03:21;;;;;;;7.10;6.50;;;33.40;95.90;;;;;;5126650;27;20770;-65
2021/07/09 11:05:49;;;;;;;8.07;6.20;;;33.40;96.30;;;;;;5125067;27;20443;-63
2021/07/09 11:08:36;;;;;;;9.47;6.97;;;33.40;96.10;;;;;;5124951;27;20824;-64
2021/07/09 11:11:13;;;;;;;10.30;6.63;;;33.40;95.80;;;;;;5122774;27;20491;-66
2021/07/09 11:16:22;;;;;;;6.97;6.17;;;33.40;95.30;;;;;;5123819;27;20435;-67
2021/07/09 11:18:56;;;;;;;12.50;6.80;;;33.40;95.10;;;;;;5106004;27;20737;-66
2021/07/09 11:21:34;;;;;;;9.60;6.20;;;33.30;94.90;;;;;;5126686;27;20623;-67
2021/07/09 11:24:02;;;;;;;9.17;6.57;;;33.30;95.10;;;;;;5105234;27;20432;-64
2021/07/09 11:26:30;;;;;;;11.27;7.50;;;33.20;95.00;;;;;;5122505;27;20427;-66
2021/07/09 11:28:57;;;;;;;6.67;5.93;;;33.20;95.30;;;;;;5124708;27;20454;-65
2021/07/09 11:31:34;;;;;;;8.87;5.87;;;33.20;94.90;;;;;;5122771;27;20529;-65
2021/07/09 11:34:19;;;;;;;8.43;6.03;;;33.20;94.70;;;;;;5124678;27;20435;-65
2021/07/09 11:36:50;;;;;;;10.90;6.50;;;33.20;94.80;;;;;;5123659;27;20503;-67
2021/07/09 11:39:22;;;;;;;11.10;5.90;;;33.20;94.90;;;;;;5127683;27;20427;-66
2021/07/09 11:41:58;;;;;;;7.63;6.83;;;33.20;94.40;;;;;;5105980;27;20491;-65
2021/07/09 11:44:31;;;;;;;10.47;6.40;;;33.20;94.40;;;;;;5112150;27;20478;-66
2021/07/09 11:47:02;;;;;;;7.70;6.53;;;33.20;94.40;;;;;;5125385;27;21875;-65
2021/07/09 11:49:31;;;;;;;9.17;6.47;;;33.20;94.50;;;;;;5125856;27;20476;-65
2021/07/09 11:52:06;;;;;;;10.00;6.43;;;33.10;94.80;;;;;;5125601;28;20435;-67
2021/07/09 11:54:36;;;;;;;15.93;6.60;;;33.10;94.50;;;;;;5125637;28;20533;-67
2021/07/09 11:57:26;;;;;;;6.80;5.40;;;33.00;94.50;;;;;;5122008;28;20497;-67
2021/07/09 11:59:54;;;;;;;13.57;6.67;;;32.90;94.30;;;;;;5097871;28;20932;-69
2021/07/09 12:02:27;;;;;;;7.63;6.37;;;32.90;94.60;;;;;;5127647;28;20477;-67
2021/07/09 12:04:58;;;;;;;8.27;6.60;;;32.90;96.60;;;;;;5123533;28;20423;-67
2021/07/09 12:07:25;;;;;;;10.40;6.70;;;32.80;95.70;;;;;;5121174;28;20411;-66
2021/07/09 12:09:57;;;;;;;9.00;7.10;;;32.70;95.60;;;;;;5125705;27;20400;-67
2021/07/09 12:12:23;;;;;;;9.00;6.67;;;32.60;96.70;;;;;;5126878;28;20864;-69
2021/07/09 12:14:58;;;;;;;10.00;6.90;;;32.60;97.20;;;;;;5110044;28;20423;-65
2021/07/09 12:17:26;;;;;;;11.73;6.67;;;32.60;96.80;;;;;;5132255;28;20411;-68
2021/07/09 12:19:53;;;;;;;10.17;6.80;;;32.50;97.30;;;;;;5130821;28;20408;-67
2021/07/09 12:22:28;;;;;;;10.53;7.17;;;32.50;96.90;;;;;;5131543;28;20466;-67
2021/07/09 12:24:54;;;;;;;11.00;6.77;;;32.60;96.50;;;;;;5130423;28;20422;-69
2021/07/09 12:27:20;;;;;;;9.50;7.20;;;32.60;96.50;;;;;;5130016;28;20418;-66
2021/07/09 12:29:47;;;;;;;10.00;7.27;;;32.70;96.30;;;;;;5129819;28;20403;-66
2021/07/09 12:32:13;;;;;;;12.40;6.97;;;32.80;95.80;;;;;;5129787;28;20757;-66
2021/07/09 12:34:38;;;;;;;11.20;7.07;;;32.80;95.60;;;;;;5129218;28;20426;-68
2021/07/09 12:37:05;;;;;;;9.37;7.00;;;32.80;95.50;;;;;;5131073;28;20221;-67
2021/07/09 12:39:31;;;;;;;15.53;6.90;;;32.90;95.70;;;;;;5132912;27;20175;-69
2021/07/09 12:42:08;;;;;;;15.53;7.33;;;32.90;95.20;;;;;;5116469;27;20520;-66
2021/07/09 12:44:35;;;;;;;8.13;7.17;;;32.80;95.00;;;;;;5137445;27;20414;-66
2021/07/09 12:47:00;;;;;;;7.57;6.80;;;32.80;95.30;;;;;;5137497;27;20411;-68